Terminal Aerodrome Forecast
Issued by NWS

Current Version | Previous Version | Text Only | Print | Product List | Glossary On
Versions: 1 2 3 4 5 6 7 8 9 10 11 12 13 14 15 16 17 18 19
000
FTUS42 KGSP 222320
TAFGMU
TAF
KGMU 222320Z 2300/2324 36009KT P6SM SKC
     FM230500 35005KT P6SM SKC
     FM231800 28004KT P6SM SKC=

USA.gov is the U.S. government's official web portal to all federal, state and local government web resources and services.